sensor_id;sensor_type;location;lat;lon;timestamp;pressure;altitude;pressure_sealevel;temperature;humidity
69528;BME280;57136;51.986;4.468;2022-08-19T00:01:04;101470.34;;;18.31;100.00
69528;BME280;57136;51.986;4.468;2022-08-19T00:03:29;101473.06;;;18.26;100.00
69528;BME280;57136;51.986;4.468;2022-08-19T00:05:54;101466.09;;;18.23;100.00
69528;BME280;57136;51.986;4.468;2022-08-19T00:08:20;101462.56;;;18.23;100.00
69528;BME280;57136;51.986;4.468;2022-08-19T00:10:46;101461.72;;;18.22;100.00
69528;BME280;57136;51.986;4.468;2022-08-19T00:13:12;101464.34;;;18.21;100.00
69528;BME280;57136;51.986;4.468;2022-08-19T00:15:38;101472.16;;;18.27;100.00
69528;BME280;57136;51.986;4.468;2022-08-19T00:18:04;101477.41;;;18.30;100.00
69528;BME280;57136;51.986;4.468;2022-08-19T00:20:29;101473.81;;;18.33;100.00
69528;BME280;57136;51.986;4.468;2022-08-19T00:22:54;101478.19;;;18.35;100.00
69528;BME280;57136;51.986;4.468;2022-08-19T00:25:20;101475.50;;;18.37;100.00
69528;BME280;57136;51.986;4.468;2022-08-19T00:27:46;101480.78;;;18.37;100.00
69528;BME280;57136;51.986;4.468;2022-08-19T00:30:12;101479.88;;;18.38;100.00
69528;BME280;57136;51.986;4.468;2022-08-19T00:32:39;101481.72;;;18.33;100.00
69528;BME280;57136;51.986;4.468;2022-08-19T00:35:05;101481.78;;;18.30;100.00
69528;BME280;57136;51.986;4.468;2022-08-19T00:37:30;101475.69;;;18.26;100.00
69528;BME280;57136;51.986;4.468;2022-08-19T00:39:56;101485.44;;;18.22;100.00
69528;BME280;57136;51.986;4.468;2022-08-19T00:42:21;101489.00;;;18.20;100.00
69528;BME280;57136;51.986;4.468;2022-08-19T00:44:47;101476.69;;;18.19;100.00
69528;BME280;57136;51.986;4.468;2022-08-19T00:47:13;101481.13;;;18.18;100.00
69528;BME280;57136;51.986;4.468;2022-08-19T00:49:46;101479.44;;;18.14;100.00
69528;BME280;57136;51.986;4.468;2022-08-19T00:52:20;101484.75;;;18.11;100.00
69528;BME280;57136;51.986;4.468;2022-08-19T00:54:46;101492.75;;;18.06;100.00
69528;BME280;57136;51.986;4.468;2022-08-19T00:57:15;101487.47;;;18.06;100.00
69528;BME280;57136;51.986;4.468;2022-08-19T00:59:45;101484.84;;;18.05;100.00
69528;BME280;57136;51.986;4.468;2022-08-19T01:02:11;101484.88;;;18.03;100.00
69528;BME280;57136;51.986;4.468;2022-08-19T01:04:37;101490.22;;;17.99;100.00
69528;BME280;57136;51.986;4.468;2022-08-19T01:07:02;101485.84;;;17.97;100.00
69528;BME280;57136;51.986;4.468;2022-08-19T01:09:29;101480.56;;;17.96;100.00
69528;BME280;57136;51.986;4.468;2022-08-19T01:11:55;101484.13;;;17.92;100.00
69528;BME280;57136;51.986;4.468;2022-08-19T01:14:21;101488.56;;;17.90;100.00
69528;BME280;57136;51.986;4.468;2022-08-19T01:16:46;101484.13;;;17.92;100.00
69528;BME280;57136;51.986;4.468;2022-08-19T01:21:52;101489.44;;;17.90;100.00
69528;BME280;57136;51.986;4.468;2022-08-19T01:24:20;101489.50;;;17.87;100.00
69528;BME280;57136;51.986;4.468;2022-08-19T01:26:46;101488.59;;;17.87;100.00
69528;BME280;57136;51.986;4.468;2022-08-19T01:29:12;101487.75;;;17.86;100.00
69528;BME280;57136;51.986;4.468;2022-08-19T01:31:37;101494.84;;;17.82;100.00
69528;BME280;57136;51.986;4.468;2022-08-19T01:34:04;101493.91;;;17.85;100.00
69528;BME280;57136;51.986;4.468;2022-08-19T01:36:40;101491.19;;;17.90;100.00
69528;BME280;57136;51.986;4.468;2022-08-19T01:39:10;101486.81;;;17.90;100.00
69528;BME280;57136;51.986;4.468;2022-08-19T01:41:35;101489.47;;;17.89;100.00
69528;BME280;57136;51.986;4.468;2022-08-19T01:44:02;101498.25;;;17.88;100.00
69528;BME280;57136;51.986;4.468;2022-08-19T01:46:30;101485.09;;;17.88;100.00
69528;BME280;57136;51.986;4.468;2022-08-19T01:48:56;101488.59;;;17.87;100.00
69528;BME280;57136;51.986;4.468;2022-08-19T01:51:22;101483.38;;;17.85;100.00
69528;BME280;57136;51.986;4.468;2022-08-19T01:53:48;101482.50;;;17.85;100.00
69528;BME280;57136;51.986;4.468;2022-08-19T01:56:14;101486.88;;;17.87;100.00
69528;BME280;57136;51.986;4.468;2022-08-19T01:58:45;101479.81;;;17.89;100.00
69528;BME280;57136;51.986;4.468;2022-08-19T02:01:13;101476.28;;;17.90;100.00
69528;BME280;57136;51.986;4.468;2022-08-19T02:03:39;101469.22;;;17.92;100.00
69528;BME280;57136;51.986;4.468;2022-08-19T02:06:04;101473.59;;;17.92;100.00
69528;BME280;57136;51.986;4.468;2022-08-19T02:08:32;101484.13;;;17.93;100.00
69528;BME280;57136;51.986;4.468;2022-08-19T02:10:58;101479.72;;;17.94;100.00
69528;BME280;57136;51.986;4.468;2022-08-19T02:13:24;101481.50;;;17.93;100.00
69528;BME280;57136;51.986;4.468;2022-08-19T02:15:50;101482.34;;;17.94;100.00
69528;BME280;57136;51.986;4.468;2022-08-19T02:18:16;101480.56;;;17.96;100.00
69528;BME280;57136;51.986;4.468;2022-08-19T02:20:42;101482.25;;;18.03;100.00
69528;BME280;57136;51.986;4.468;2022-08-19T02:23:09;101486.63;;;18.03;100.00
69528;BME280;57136;51.986;4.468;2022-08-19T02:25:35;101482.19;;;18.06;100.00
69528;BME280;57136;51.986;4.468;2022-08-19T02:28:00;101486.53;;;18.09;100.00
69528;BME280;57136;51.986;4.468;2022-08-19T02:30:26;101478.56;;;18.12;100.00
69528;BME280;57136;51.986;4.468;2022-08-19T02:32:52;101483.81;;;18.15;100.00
69528;BME280;57136;51.986;4.468;2022-08-19T02:35:17;101480.28;;;18.16;100.00
69528;BME280;57136;51.986;4.468;2022-08-19T02:37:43;101479.38;;;18.17;100.00
69528;BME280;57136;51.986;4.468;2022-08-19T02:40:32;101473.16;;;18.20;100.00
69528;BME280;57136;51.986;4.468;2022-08-19T02:43:05;101479.34;;;18.19;100.00
69528;BME280;57136;51.986;4.468;2022-08-19T02:45:37;101475.81;;;18.20;100.00
69528;BME280;57136;51.986;4.468;2022-08-19T02:48:04;101463.50;;;18.20;100.00
69528;BME280;57136;51.986;4.468;2022-08-19T02:50:30;101457.38;;;18.18;100.00
69528;BME280;57136;51.986;4.468;2022-08-19T02:52:56;101459.13;;;18.18;100.00
69528;BME280;57136;51.986;4.468;2022-08-19T02:55:21;101459.06;;;18.22;100.00
69528;BME280;57136;51.986;4.468;2022-08-19T02:57:47;101459.06;;;18.21;100.00
69528;BME280;57136;51.986;4.468;2022-08-19T03:00:14;101453.78;;;18.22;100.00
69528;BME280;57136;51.986;4.468;2022-08-19T03:02:40;101447.69;;;18.19;100.00
69528;BME280;57136;51.986;4.468;2022-08-19T03:05:08;101454.69;;;18.21;100.00
69528;BME280;57136;51.986;4.468;2022-08-19T03:07:35;101448.56;;;18.19;100.00
69528;BME280;57136;51.986;4.468;2022-08-19T03:10:00;101448.56;;;18.18;100.00
69528;BME280;57136;51.986;4.468;2022-08-19T03:12:26;101442.50;;;18.14;100.00
69528;BME280;57136;51.986;4.468;2022-08-19T03:14:51;101438.97;;;18.14;100.00
69528;BME280;57136;51.986;4.468;2022-08-19T03:17:17;101449.66;;;18.07;100.00
69528;BME280;57136;51.986;4.468;2022-08-19T03:19:43;101448.81;;;18.05;100.00
69528;BME280;57136;51.986;4.468;2022-08-19T03:22:08;101455.00;;;18.03;100.00
69528;BME280;57136;51.986;4.468;2022-08-19T03:24:34;101450.59;;;18.02;100.00
69528;BME280;57136;51.986;4.468;2022-08-19T03:26:59;101435.72;;;17.97;100.00
69528;BME280;57136;51.986;4.468;2022-08-19T03:29:29;101447.13;;;17.98;100.00
69528;BME280;57136;51.986;4.468;2022-08-19T03:31:56;101441.91;;;17.95;100.00
69528;BME280;57136;51.986;4.468;2022-08-19T03:34:25;101445.47;;;17.92;100.00
69528;BME280;57136;51.986;4.468;2022-08-19T03:36:59;101443.72;;;17.91;100.00
69528;BME280;57136;51.986;4.468;2022-08-19T03:39:26;101445.47;;;17.91;100.00
69528;BME280;57136;51.986;4.468;2022-08-19T03:41:53;101439.34;;;17.90;100.00
69528;BME280;57136;51.986;4.468;2022-08-19T03:44:22;101442.00;;;17.89;100.00
69528;BME280;57136;51.986;4.468;2022-08-19T03:46:50;101442.88;;;17.89;100.00
69528;BME280;57136;51.986;4.468;2022-08-19T03:49:16;101445.56;;;17.85;100.00
69528;BME280;57136;51.986;4.468;2022-08-19T03:51:42;101442.03;;;17.86;100.00
69528;BME280;57136;51.986;4.468;2022-08-19T03:54:11;101449.06;;;17.88;100.00
69528;BME280;57136;51.986;4.468;2022-08-19T03:56:39;101450.81;;;17.88;100.00
69528;BME280;57136;51.986;4.468;2022-08-19T03:59:07;101451.59;;;17.93;100.00
69528;BME280;57136;51.986;4.468;2022-08-19T04:01:32;101454.94;;;18.06;100.00
69528;BME280;57136;51.986;4.468;2022-08-19T04:03:59;101460.91;;;18.17;100.00
69528;BME280;57136;51.986;4.468;2022-08-19T04:06:27;101465.94;;;18.31;100.00
69528;BME280;57136;51.986;4.468;2022-08-19T04:08:57;101464.00;;;18.41;100.00
69528;BME280;57136;51.986;4.468;2022-08-19T04:11:27;101463.75;;;18.55;100.00
69528;BME280;57136;51.986;4.468;2022-08-19T04:13:56;101464.59;;;18.57;100.00
69528;BME280;57136;51.986;4.468;2022-08-19T04:16:23;101470.34;;;18.78;100.00
69528;BME280;57136;51.986;4.468;2022-08-19T04:18:49;101469.50;;;18.77;100.00
69528;BME280;57136;51.986;4.468;2022-08-19T04:21:20;101473.59;;;18.92;100.00
69528;BME280;57136;51.986;4.468;2022-08-19T04:23:46;101466.38;;;19.02;100.00
69528;BME280;57136;51.986;4.468;2022-08-19T04:26:20;101477.38;;;19.23;100.00
69528;BME280;57136;51.986;4.468;2022-08-19T04:28:46;101476.53;;;19.21;100.00
69528;BME280;57136;51.986;4.468;2022-08-19T04:31:18;101471.03;;;19.31;100.00
69528;BME280;57136;51.986;4.468;2022-08-19T04:33:43;101468.25;;;19.38;100.00
69528;BME280;57136;51.986;4.468;2022-08-19T04:36:16;101470.84;;;19.41;100.00
69528;BME280;57136;51.986;4.468;2022-08-19T04:38:42;101464.34;;;19.54;100.00
69528;BME280;57136;51.986;4.468;2022-08-19T04:41:08;101472.13;;;19.60;100.00
69528;BME280;57136;51.986;4.468;2022-08-19T04:43:52;101456.06;;;19.70;100.00
69528;BME280;57136;51.986;4.468;2022-08-19T04:46:17;101461.22;;;19.76;100.00
69528;BME280;57136;51.986;4.468;2022-08-19T04:48:44;101456.00;;;19.71;100.00
69528;BME280;57136;51.986;4.468;2022-08-19T04:51:11;101457.81;;;19.71;100.00
69528;BME280;57136;51.986;4.468;2022-08-19T04:53:39;101465.50;;;19.80;100.00
69528;BME280;57136;51.986;4.468;2022-08-19T04:56:11;101467.97;;;19.89;100.00
69528;BME280;57136;51.986;4.468;2022-08-19T04:58:38;101461.63;;;19.97;100.00
69528;BME280;57136;51.986;4.468;2022-08-19T05:01:04;101467.81;;;19.96;100.00
69528;BME280;57136;51.986;4.468;2022-08-19T05:03:30;101465.03;;;20.00;100.00
69528;BME280;57136;51.986;4.468;2022-08-19T05:06:05;101471.16;;;20.04;100.00
69528;BME280;57136;51.986;4.468;2022-08-19T05:08:33;101472.63;;;20.16;100.00
69528;BME280;57136;51.986;4.468;2022-08-19T05:10:59;101477.84;;;20.17;100.00
69528;BME280;57136;51.986;4.468;2022-08-19T05:13:24;101481.13;;;20.27;100.00
69528;BME280;57136;51.986;4.468;2022-08-19T05:15:56;101482.75;;;20.33;100.00
69528;BME280;57136;51.986;4.468;2022-08-19T05:18:22;101478.19;;;20.38;100.00
69528;BME280;57136;51.986;4.468;2022-08-19T05:21:15;101475.53;;;20.38;100.00
69528;BME280;57136;51.986;4.468;2022-08-19T05:24:00;101468.25;;;20.48;100.00
69528;BME280;57136;51.986;4.468;2022-08-19T05:26:26;101471.75;;;20.48;100.00
69528;BME280;57136;51.986;4.468;2022-08-19T05:28:55;101475.00;;;20.58;100.00
69528;BME280;57136;51.986;4.468;2022-08-19T05:31:21;101474.84;;;20.64;100.00
69528;BME280;57136;51.986;4.468;2022-08-19T05:33:46;101470.41;;;20.65;100.00
69528;BME280;57136;51.986;4.468;2022-08-19T05:36:12;101460.84;;;20.61;100.00
69528;BME280;57136;51.986;4.468;2022-08-19T05:38:38;101463.25;;;20.69;100.00
69528;BME280;57136;51.986;4.468;2022-08-19T05:41:12;101468.41;;;20.75;100.00
69528;BME280;57136;51.986;4.468;2022-08-19T05:43:37;101461.19;;;20.80;100.00
69528;BME280;57136;51.986;4.468;2022-08-19T05:46:07;101469.97;;;20.82;100.00
69528;BME280;57136;51.986;4.468;2022-08-19T05:48:34;101468.06;;;20.87;100.00
69528;BME280;57136;51.986;4.468;2022-08-19T05:51:07;101470.47;;;20.97;100.00
69528;BME280;57136;51.986;4.468;2022-08-19T05:53:33;101469.53;;;20.98;100.00
69528;BME280;57136;51.986;4.468;2022-08-19T05:56:10;101466.72;;;21.04;100.00
69528;BME280;57136;51.986;4.468;2022-08-19T05:58:37;101469.06;;;21.13;100.00
69528;BME280;57136;51.986;4.468;2022-08-19T06:01:08;101469.25;;;21.07;100.00
69528;BME280;57136;51.986;4.468;2022-08-19T06:03:35;101461.28;;;21.08;100.00
69528;BME280;57136;51.986;4.468;2022-08-19T06:06:03;101450.41;;;21.18;100.00
69528;BME280;57136;51.986;4.468;2022-08-19T06:08:29;101455.41;;;21.27;100.00
69528;BME280;57136;51.986;4.468;2022-08-19T06:10:55;101466.81;;;21.31;100.00
69528;BME280;57136;51.986;4.468;2022-08-19T06:13:22;101463.44;;;21.24;100.00
69528;BME280;57136;51.986;4.468;2022-08-19T06:15:49;101464.72;;;21.40;100.00
69528;BME280;57136;51.986;4.468;2022-08-19T06:18:15;101463.91;;;21.38;100.00
69528;BME280;57136;51.986;4.468;2022-08-19T06:20:41;101472.44;;;21.48;100.00
69528;BME280;57136;51.986;4.468;2022-08-19T06:23:08;101471.56;;;21.48;100.00
69528;BME280;57136;51.986;4.468;2022-08-19T06:25:34;101472.94;;;21.61;99.50
69528;BME280;57136;51.986;4.468;2022-08-19T06:27:59;101465.63;;;21.69;99.72
69528;BME280;57136;51.986;4.468;2022-08-19T06:30:24;101462.41;;;21.58;99.24
69528;BME280;57136;51.986;4.468;2022-08-19T06:32:50;101465.13;;;21.57;99.28
69528;BME280;57136;51.986;4.468;2022-08-19T06:35:15;101458.69;;;21.65;99.16
69528;BME280;57136;51.986;4.468;2022-08-19T06:37:41;101470.97;;;21.68;99.04
69528;BME280;57136;51.986;4.468;2022-08-19T06:40:08;101468.50;;;21.62;99.09
69528;BME280;57136;51.986;4.468;2022-08-19T06:42:35;101471.84;;;21.68;99.45
69528;BME280;57136;51.986;4.468;2022-08-19T06:45:04;101462.97;;;21.96;98.62
69528;BME280;57136;51.986;4.468;2022-08-19T06:47:30;101464.16;;;22.14;97.85
69528;BME280;57136;51.986;4.468;2022-08-19T06:49:58;101466.84;;;22.13;96.38
69528;BME280;57136;51.986;4.468;2022-08-19T06:52:34;101469.25;;;21.94;96.97
69528;BME280;57136;51.986;4.468;2022-08-19T06:55:00;101468.84;;;22.06;97.29
69528;BME280;57136;51.986;4.468;2022-08-19T06:57:26;101467.59;;;22.17;97.67
69528;BME280;57136;51.986;4.468;2022-08-19T06:59:51;101462.19;;;22.20;96.91
69528;BME280;57136;51.986;4.468;2022-08-19T07:02:17;101468.84;;;22.32;96.33
69528;BME280;57136;51.986;4.468;2022-08-19T07:04:42;101474.69;;;22.43;95.68
69528;BME280;57136;51.986;4.468;2022-08-19T07:07:14;101473.69;;;22.45;95.91
69528;BME280;57136;51.986;4.468;2022-08-19T07:09:42;101478.38;;;22.64;94.96
69528;BME280;57136;51.986;4.468;2022-08-19T07:12:11;101480.41;;;22.81;93.66
69528;BME280;57136;51.986;4.468;2022-08-19T07:14:38;101483.72;;;22.88;92.88
69528;BME280;57136;51.986;4.468;2022-08-19T07:17:07;101491.38;;;22.96;91.38
69528;BME280;57136;51.986;4.468;2022-08-19T07:19:34;101481.97;;;22.87;92.23
69528;BME280;57136;51.986;4.468;2022-08-19T07:22:02;101490.56;;;22.94;92.16
69528;BME280;57136;51.986;4.468;2022-08-19T07:24:30;101494.81;;;22.99;91.89
69528;BME280;57136;51.986;4.468;2022-08-19T07:26:57;101490.44;;;22.98;91.69
69528;BME280;57136;51.986;4.468;2022-08-19T07:29:26;101491.09;;;23.03;91.31
69528;BME280;57136;51.986;4.468;2022-08-19T07:31:53;101489.03;;;23.12;90.92
69528;BME280;57136;51.986;4.468;2022-08-19T07:34:22;101485.44;;;23.13;90.44
69528;BME280;57136;51.986;4.468;2022-08-19T07:36:49;101491.22;;;23.00;91.12
69528;BME280;57136;51.986;4.468;2022-08-19T07:39:22;101493.13;;;22.97;91.79
69528;BME280;57136;51.986;4.468;2022-08-19T07:41:48;101490.66;;;22.92;92.07
69528;BME280;57136;51.986;4.468;2022-08-19T07:44:14;101489.91;;;22.63;92.29
69528;BME280;57136;51.986;4.468;2022-08-19T07:46:44;101491.97;;;22.55;93.17
69528;BME280;57136;51.986;4.468;2022-08-19T07:49:12;101490.41;;;22.49;93.66
69528;BME280;57136;51.986;4.468;2022-08-19T07:51:43;101487.25;;;22.63;94.03
69528;BME280;57136;51.986;4.468;2022-08-19T07:54:09;101485.22;;;22.71;93.57
69528;BME280;57136;51.986;4.468;2022-08-19T07:56:34;101487.41;;;22.84;93.37
69528;BME280;57136;51.986;4.468;2022-08-19T07:59:00;101493.75;;;23.03;93.23
69528;BME280;57136;51.986;4.468;2022-08-19T08:01:27;101497.69;;;23.17;91.83
69528;BME280;57136;51.986;4.468;2022-08-19T08:03:56;101505.28;;;23.28;90.92
69528;BME280;57136;51.986;4.468;2022-08-19T08:06:41;101511.31;;;23.33;90.30
69528;BME280;57136;51.986;4.468;2022-08-19T08:09:32;101508.22;;;23.44;89.76
69528;BME280;57136;51.986;4.468;2022-08-19T08:12:04;101506.19;;;23.51;90.76
69528;BME280;57136;51.986;4.468;2022-08-19T08:14:34;101510.13;;;23.62;89.62
69528;BME280;57136;51.986;4.468;2022-08-19T08:17:01;101506.75;;;23.81;89.18
69528;BME280;57136;51.986;4.468;2022-08-19T08:19:27;101504.03;;;24.05;87.27
69528;BME280;57136;51.986;4.468;2022-08-19T08:21:56;101507.41;;;24.31;85.87
69528;BME280;57136;51.986;4.468;2022-08-19T08:24:22;101512.97;;;24.45;85.14
69528;BME280;57136;51.986;4.468;2022-08-19T08:26:48;101509.34;;;24.48;83.99
69528;BME280;57136;51.986;4.468;2022-08-19T08:29:14;101508.44;;;24.47;83.99
69528;BME280;57136;51.986;4.468;2022-08-19T08:31:43;101519.56;;;24.57;83.38
69528;BME280;57136;51.986;4.468;2022-08-19T08:34:09;101518.72;;;24.77;83.12
69528;BME280;57136;51.986;4.468;2022-08-19T08:36:42;101521.03;;;25.06;81.75
69528;BME280;57136;51.986;4.468;2022-08-19T08:39:11;101520.97;;;24.87;80.48
69528;BME280;57136;51.986;4.468;2022-08-19T08:41:46;101514.09;;;25.02;80.77
69528;BME280;57136;51.986;4.468;2022-08-19T08:44:22;101513.44;;;25.16;82.17
69528;BME280;57136;51.986;4.468;2022-08-19T08:46:56;101519.31;;;25.43;78.59
69528;BME280;57136;51.986;4.468;2022-08-19T08:52:20;101524.22;;;25.52;76.75
69528;BME280;57136;51.986;4.468;2022-08-19T08:54:49;101514.31;;;25.73;75.89
69528;BME280;57136;51.986;4.468;2022-08-19T08:57:22;101519.59;;;26.29;74.19
69528;BME280;57136;51.986;4.468;2022-08-19T08:59:50;101515.16;;;26.81;71.65
69528;BME280;57136;51.986;4.468;2022-08-19T09:02:18;101523.19;;;27.47;68.04
69528;BME280;57136;51.986;4.468;2022-08-19T09:04:44;101527.59;;;28.10;65.04
69528;BME280;57136;51.986;4.468;2022-08-19T09:16:04;101522.59;;;29.09;58.31
69528;BME280;57136;51.986;4.468;2022-08-19T09:18:48;101520.59;;;28.83;58.12
69528;BME280;57136;51.986;4.468;2022-08-19T09:21:17;101524.91;;;27.80;61.63
69528;BME280;57136;51.986;4.468;2022-08-19T09:23:42;101529.44;;;27.14;64.61
69528;BME280;57136;51.986;4.468;2022-08-19T09:26:11;101527.97;;;26.57;68.07
69528;BME280;57136;51.986;4.468;2022-08-19T09:28:40;101527.03;;;26.23;68.43
69528;BME280;57136;51.986;4.468;2022-08-19T09:31:14;101534.75;;;25.92;68.85
69528;BME280;57136;51.986;4.468;2022-08-19T09:33:40;101536.88;;;25.28;71.77
69528;BME280;57136;51.986;4.468;2022-08-19T09:36:11;101540.41;;;25.09;73.97
69528;BME280;57136;51.986;4.468;2022-08-19T09:38:37;101536.91;;;24.88;75.13
69528;BME280;57136;51.986;4.468;2022-08-19T09:41:15;101543.47;;;24.81;76.53
69528;BME280;57136;51.986;4.468;2022-08-19T09:43:43;101540.25;;;24.73;77.49
69528;BME280;57136;51.986;4.468;2022-08-19T09:46:09;101534.31;;;24.66;76.72
69528;BME280;57136;51.986;4.468;2022-08-19T09:48:39;101539.31;;;24.74;75.92
69528;BME280;57136;51.986;4.468;2022-08-19T09:51:10;101542.22;;;24.67;75.85
69528;BME280;57136;51.986;4.468;2022-08-19T09:53:36;101552.09;;;24.65;75.32
69528;BME280;57136;51.986;4.468;2022-08-19T09:56:03;101539.47;;;24.69;74.66
69528;BME280;57136;51.986;4.468;2022-08-19T09:58:29;101543.16;;;24.87;74.09
69528;BME280;57136;51.986;4.468;2022-08-19T10:00:57;101536.72;;;24.93;72.89
69528;BME280;57136;51.986;4.468;2022-08-19T10:03:24;101550.00;;;25.13;72.50
69528;BME280;57136;51.986;4.468;2022-08-19T10:05:49;101546.69;;;25.27;73.25
69528;BME280;57136;51.986;4.468;2022-08-19T10:08:24;101542.34;;;25.82;70.77
69528;BME280;57136;51.986;4.468;2022-08-19T10:10:50;101539.81;;;26.69;66.21
69528;BME280;57136;51.986;4.468;2022-08-19T10:13:18;101540.66;;;27.36;63.96
69528;BME280;57136;51.986;4.468;2022-08-19T10:15:47;101540.03;;;27.65;63.58
69528;BME280;57136;51.986;4.468;2022-08-19T10:18:16;101545.78;;;27.41;63.25
69528;BME280;57136;51.986;4.468;2022-08-19T10:20:43;101529.72;;;27.25;62.91
69528;BME280;57136;51.986;4.468;2022-08-19T10:23:10;101541.31;;;27.58;61.85
69528;BME280;57136;51.986;4.468;2022-08-19T10:25:35;101542.16;;;27.90;59.19
69528;BME280;57136;51.986;4.468;2022-08-19T10:28:01;101534.56;;;27.83;59.16
69528;BME280;57136;51.986;4.468;2022-08-19T10:30:26;101542.09;;;27.60;59.55
69528;BME280;57136;51.986;4.468;2022-08-19T10:32:52;101539.19;;;27.15;61.96
69528;BME280;57136;51.986;4.468;2022-08-19T10:35:18;101531.88;;;26.85;63.01
69528;BME280;57136;51.986;4.468;2022-08-19T10:37:43;101527.00;;;26.75;63.71
69528;BME280;57136;51.986;4.468;2022-08-19T10:40:09;101535.88;;;26.94;64.28
69528;BME280;57136;51.986;4.468;2022-08-19T10:42:36;101528.91;;;26.73;62.61
69528;BME280;57136;51.986;4.468;2022-08-19T10:45:06;101532.69;;;26.34;65.20
69528;BME280;57136;51.986;4.468;2022-08-19T10:47:32;101534.78;;;25.73;67.67
69528;BME280;57136;51.986;4.468;2022-08-19T10:49:58;101532.13;;;25.73;68.21
69528;BME280;57136;51.986;4.468;2022-08-19T10:52:46;101531.13;;;25.76;69.57
69528;BME280;57136;51.986;4.468;2022-08-19T10:55:11;101534.66;;;25.94;68.40
69528;BME280;57136;51.986;4.468;2022-08-19T10:57:56;101530.59;;;26.04;68.41
69528;BME280;57136;51.986;4.468;2022-08-19T11:00:24;101538.19;;;26.13;66.36
69528;BME280;57136;51.986;4.468;2022-08-19T11:02:50;101535.13;;;26.21;67.06
69528;BME280;57136;51.986;4.468;2022-08-19T11:05:16;101531.03;;;25.77;70.92
69528;BME280;57136;51.986;4.468;2022-08-19T11:07:43;101539.78;;;25.62;72.53
69528;BME280;57136;51.986;4.468;2022-08-19T11:10:11;101530.78;;;25.45;73.23
69528;BME280;57136;51.986;4.468;2022-08-19T11:12:37;101529.25;;;25.39;72.57
69528;BME280;57136;51.986;4.468;2022-08-19T11:15:09;101534.97;;;25.51;73.19
69528;BME280;57136;51.986;4.468;2022-08-19T11:17:37;101537.69;;;25.49;73.39
69528;BME280;57136;51.986;4.468;2022-08-19T11:20:06;101538.59;;;25.29;74.29
69528;BME280;57136;51.986;4.468;2022-08-19T11:22:31;101540.63;;;25.24;75.44
69528;BME280;57136;51.986;4.468;2022-08-19T11:24:57;101536.88;;;25.28;75.77
69528;BME280;57136;51.986;4.468;2022-08-19T11:27:22;101538.97;;;25.21;75.40
69528;BME280;57136;51.986;4.468;2022-08-19T11:29:47;101533.47;;;25.05;74.74
69528;BME280;57136;51.986;4.468;2022-08-19T11:32:13;101534.13;;;25.10;73.17
69528;BME280;57136;51.986;4.468;2022-08-19T11:34:39;101537.94;;;25.45;71.16
69528;BME280;57136;51.986;4.468;2022-08-19T11:37:05;101541.56;;;25.80;69.53
69528;BME280;57136;51.986;4.468;2022-08-19T11:39:32;101542.78;;;26.10;68.98
69528;BME280;57136;51.986;4.468;2022-08-19T11:41:59;101543.38;;;26.16;68.18
69528;BME280;57136;51.986;4.468;2022-08-19T11:44:25;101542.28;;;26.21;68.51
69528;BME280;57136;51.986;4.468;2022-08-19T11:46:53;101538.97;;;26.33;68.56
69528;BME280;57136;51.986;4.468;2022-08-19T11:49:20;101533.50;;;26.19;68.75
69528;BME280;57136;51.986;4.468;2022-08-19T11:51:47;101540.56;;;26.20;70.52
69528;BME280;57136;51.986;4.468;2022-08-19T11:54:14;101541.03;;;26.09;72.89
69528;BME280;57136;51.986;4.468;2022-08-19T11:56:41;101534.34;;;26.19;72.14
69528;BME280;57136;51.986;4.468;2022-08-19T11:59:07;101533.72;;;26.31;73.32
69528;BME280;57136;51.986;4.468;2022-08-19T12:01:33;101534.56;;;26.67;71.30
69528;BME280;57136;51.986;4.468;2022-08-19T12:03:59;101546.56;;;26.94;68.75
69528;BME280;57136;51.986;4.468;2022-08-19T12:06:29;101553.22;;;27.36;65.99
69528;BME280;57136;51.986;4.468;2022-08-19T12:08:58;101543.94;;;27.59;66.83
69528;BME280;57136;51.986;4.468;2022-08-19T12:11:25;101546.22;;;27.49;65.49
69528;BME280;57136;51.986;4.468;2022-08-19T12:13:51;101542.44;;;27.54;65.73
69528;BME280;57136;51.986;4.468;2022-08-19T12:16:20;101539.16;;;26.99;67.98
69528;BME280;57136;51.986;4.468;2022-08-19T12:18:48;101536.44;;;26.65;68.73
69528;BME280;57136;51.986;4.468;2022-08-19T12:21:18;101537.72;;;26.75;69.74
69528;BME280;57136;51.986;4.468;2022-08-19T12:23:46;101548.09;;;26.82;69.73
69528;BME280;57136;51.986;4.468;2022-08-19T12:26:12;101542.66;;;26.66;71.51
69528;BME280;57136;51.986;4.468;2022-08-19T12:28:38;101533.34;;;26.90;69.19
69528;BME280;57136;51.986;4.468;2022-08-19T12:31:04;101538.09;;;26.85;68.09
69528;BME280;57136;51.986;4.468;2022-08-19T12:33:29;101538.03;;;26.69;68.58
69528;BME280;57136;51.986;4.468;2022-08-19T12:36:01;101533.09;;;26.44;71.13
69528;BME280;57136;51.986;4.468;2022-08-19T12:38:27;101531.13;;;26.30;71.19
69528;BME280;57136;51.986;4.468;2022-08-19T12:40:52;101523.66;;;26.37;71.88
69528;BME280;57136;51.986;4.468;2022-08-19T12:43:18;101534.13;;;26.41;70.40
69528;BME280;57136;51.986;4.468;2022-08-19T12:45:44;101520.09;;;26.54;70.25
69528;BME280;57136;51.986;4.468;2022-08-19T12:48:10;101527.75;;;26.61;69.83
69528;BME280;57136;51.986;4.468;2022-08-19T12:50:39;101527.50;;;26.66;70.69
69528;BME280;57136;51.986;4.468;2022-08-19T12:53:04;101526.75;;;26.62;71.11
69528;BME280;57136;51.986;4.468;2022-08-19T12:55:30;101526.22;;;26.56;69.92
69528;BME280;57136;51.986;4.468;2022-08-19T12:57:55;101520.81;;;26.57;69.36
69528;BME280;57136;51.986;4.468;2022-08-19T13:00:22;101519.81;;;26.42;70.61
69528;BME280;57136;51.986;4.468;2022-08-19T13:02:49;101515.63;;;26.37;72.93